Time;durP1;ratioP1;P1;durP2;ratioP2;P2;SDS_P1;SDS_P2;PMS_P1;PMS_P2;Temp;Humidity;BMP_temperature;BMP_pressure;BME280_temperature;BME280_humidity;BME280_pressure;Samples;Min_cycle;Max_cycle;Signal;HPM_P1;HPM_P2
2021/01/05 00:00:52;;;;;;;1999.90;999.90;;;3.70;99.90;;;;;;5018117;28;20216;-84
2021/01/05 00:03:18;;;;;;;1999.90;999.90;;;3.70;99.90;;;;;;5001247;28;20174;-84
2021/01/05 00:05:44;;;;;;;1999.90;999.90;;;3.70;99.90;;;;;;4999720;28;20190;-83
2021/01/05 00:08:10;;;;;;;1999.90;999.90;;;3.60;99.90;;;;;;5016997;28;20194;-83
2021/01/05 00:10:35;;;;;;;1999.90;999.90;;;3.60;99.90;;;;;;4998317;28;20408;-83
2021/01/05 00:13:01;;;;;;;1999.90;999.90;;;3.60;99.90;;;;;;5000131;28;20667;-84
2021/01/05 00:15:27;;;;;;;1999.90;999.90;;;3.60;99.90;;;;;;5018045;28;20482;-84
2021/01/05 00:17:52;;;;;;;1999.90;999.90;;;3.60;99.90;;;;;;5000013;28;20180;-84
2021/01/05 00:20:22;;;;;;;1999.90;999.90;;;3.60;99.90;;;;;;4999980;28;20261;-84
2021/01/05 00:22:48;;;;;;;1999.90;999.90;;;3.60;99.90;;;;;;4999953;28;20695;-84
2021/01/05 00:25:17;;;;;;;1999.90;999.90;;;3.60;99.90;;;;;;5017169;28;20186;-84
2021/01/05 00:27:43;;;;;;;1999.90;999.90;;;3.50;99.90;;;;;;5017329;28;20188;-84
2021/01/05 00:30:15;;;;;;;1999.90;999.90;;;3.50;99.90;;;;;;5000140;28;20166;-84
2021/01/05 00:32:43;;;;;;;1999.90;999.90;;;3.50;99.90;;;;;;4999721;28;20178;-84
2021/01/05 00:35:15;;;;;;;1999.90;999.90;;;3.50;99.90;;;;;;5017658;28;20162;-84
2021/01/05 00:37:41;;;;;;;1999.90;999.90;;;3.50;99.90;;;;;;5000351;28;20253;-84
2021/01/05 00:40:08;;;;;;;1999.90;999.90;;;3.50;99.90;;;;;;5017115;28;20613;-84
2021/01/05 00:42:34;;;;;;;1999.90;999.90;;;3.50;99.90;;;;;;4999721;28;20420;-84
2021/01/05 00:45:00;;;;;;;1999.90;999.90;;;3.50;99.90;;;;;;5017079;28;20216;-84
2021/01/05 00:47:25;;;;;;;1999.90;999.90;;;3.40;99.90;;;;;;4999533;28;20166;-84
2021/01/05 00:49:51;;;;;;;1999.90;999.90;;;3.40;99.90;;;;;;4999825;28;20173;-83
2021/01/05 00:52:17;;;;;;;1999.90;999.90;;;3.50;99.90;;;;;;5016687;28;20169;-84
2021/01/05 00:54:42;;;;;;;1999.90;999.90;;;3.50;99.90;;;;;;4999249;28;20205;-84
2021/01/05 00:57:11;;;;;;;1999.90;999.90;;;3.50;99.90;;;;;;5016747;28;20158;-84
2021/01/05 00:59:37;;;;;;;1999.90;999.90;;;3.50;99.90;;;;;;4998968;28;20170;-84
2021/01/05 01:02:05;;;;;;;1999.90;999.90;;;3.50;99.90;;;;;;4998842;28;20576;-84
2021/01/05 01:04:31;;;;;;;1999.90;999.90;;;3.50;99.90;;;;;;5016605;28;20162;-84
2021/01/05 01:06:57;;;;;;;1999.90;999.90;;;3.50;99.90;;;;;;5016637;28;20268;-84
2021/01/05 01:09:23;;;;;;;1999.90;999.90;;;3.50;99.90;;;;;;5016332;28;20212;-84
2021/01/05 01:12:06;;;;;;;1999.90;999.90;;;3.50;99.90;;;;;;5017182;28;20241;-84
2021/01/05 01:14:33;;;;;;;1999.90;999.90;;;3.50;99.90;;;;;;5016785;28;20401;-84
2021/01/05 01:16:59;;;;;;;1999.90;999.90;;;3.50;99.90;;;;;;5016823;28;20193;-84
2021/01/05 01:19:25;;;;;;;1999.90;999.90;;;3.50;99.90;;;;;;4998910;28;20166;-84
2021/01/05 01:21:53;;;;;;;1999.90;999.90;;;3.50;99.90;;;;;;4999297;28;20296;-84
2021/01/05 01:24:20;;;;;;;1999.90;999.90;;;3.50;99.90;;;;;;5016732;28;20166;-84
2021/01/05 01:26:46;;;;;;;1999.90;999.90;;;3.50;99.90;;;;;;5016321;28;20193;-84
2021/01/05 01:29:17;;;;;;;1999.90;999.90;;;3.60;99.90;;;;;;4998888;28;20228;-84
2021/01/05 01:34:14;;;;;;;1999.90;999.90;;;3.60;99.90;;;;;;5041317;28;20465;-81
2021/01/05 01:36:40;;;;;;;1999.90;999.90;;;3.60;99.90;;;;;;5024585;28;20165;-81
2021/01/05 01:39:06;;;;;;;1999.90;999.90;;;3.50;99.90;;;;;;5042132;28;20662;-81
2021/01/05 01:41:36;;;;;;;1999.90;999.90;;;3.50;99.90;;;;;;5042070;28;20296;-81
2021/01/05 01:44:03;;;;;;;1999.90;999.90;;;3.50;99.90;;;;;;5041886;28;20169;-81
2021/01/05 01:46:35;;;;;;;1999.90;999.90;;;3.50;99.90;;;;;;5024294;28;20197;-81
2021/01/05 01:49:01;;;;;;;1999.90;999.90;;;3.50;99.90;;;;;;5042639;28;20157;-80
2021/01/05 01:51:27;;;;;;;1999.90;999.90;;;3.40;99.90;;;;;;5041667;28;20291;-81
2021/01/05 01:54:30;;;;;;;1999.90;999.90;;;3.40;99.90;;;;;;5041489;28;20161;-81
2021/01/05 01:57:20;;;;;;;1999.90;999.90;;;3.40;99.90;;;;;;5042007;28;20156;-81
2021/01/05 02:00:05;;;;;;;1999.90;999.90;;;3.40;99.90;;;;;;5042865;28;20165;-81
2021/01/05 02:02:56;;;;;;;1999.90;999.90;;;3.40;99.90;;;;;;5024405;28;20168;-81
2021/01/05 02:05:34;;;;;;;1999.90;999.90;;;3.50;99.90;;;;;;5042058;28;20212;-81
2021/01/05 02:08:27;;;;;;;1999.90;999.90;;;3.40;99.90;;;;;;5041899;28;20153;-80
2021/01/05 02:11:11;;;;;;;1999.90;999.90;;;3.40;99.90;;;;;;5042169;28;20203;-80
2021/01/05 02:13:54;;;;;;;1999.90;999.90;;;3.40;99.90;;;;;;5042061;28;20169;-81
2021/01/05 02:16:56;;;;;;;1999.90;999.90;;;3.40;99.90;;;;;;5024610;28;20611;-81
2021/01/05 02:19:34;;;;;;;1999.90;999.90;;;3.50;99.90;;;;;;5014863;28;20181;-80
2021/01/05 02:22:16;;;;;;;1999.90;999.90;;;3.50;99.90;;;;;;5042174;28;20153;-80
2021/01/05 02:25:13;;;;;;;1999.90;999.90;;;3.40;99.90;;;;;;5041966;28;20157;-80
2021/01/05 02:27:51;;;;;;;1999.90;999.90;;;3.40;99.90;;;;;;5041557;28;20184;-81
2021/01/05 02:30:27;;;;;;;1999.90;999.90;;;3.50;99.90;;;;;;5041381;28;20161;-80
2021/01/05 02:33:04;;;;;;;1999.90;999.90;;;3.40;99.90;;;;;;5040353;28;20187;-80
2021/01/05 02:35:43;;;;;;;1999.90;999.90;;;3.40;99.90;;;;;;5040942;28;20643;-80
2021/01/05 02:38:52;;;;;;;1999.90;999.90;;;3.40;99.90;;;;;;5041005;28;20169;-81
2021/01/05 02:41:49;;;;;;;1999.90;999.90;;;3.40;99.90;;;;;;5013703;28;20200;-81
2021/01/05 02:44:36;;;;;;;1999.90;999.90;;;3.30;99.90;;;;;;5041454;28;20156;-80
2021/01/05 02:47:51;;;;;;;1999.90;999.90;;;3.40;99.90;;;;;;5023854;28;20189;-80
2021/01/05 02:50:39;;;;;;;1999.90;999.90;;;3.40;99.90;;;;;;4982386;28;20504;-80
2021/01/05 02:53:42;;;;;;;1999.90;999.90;;;3.40;99.90;;;;;;5019757;28;20224;-80
2021/01/05 02:56:20;;;;;;;1999.90;999.90;;;3.40;99.90;;;;;;5041562;28;20247;-80
2021/01/05 02:59:19;;;;;;;1999.90;999.90;;;3.30;99.90;;;;;;5041261;28;20180;-80
2021/01/05 03:02:03;;;;;;;1999.90;999.90;;;3.30;99.90;;;;;;5007208;28;20165;-80
2021/01/05 03:04:29;;;;;;;1999.90;999.90;;;3.30;99.90;;;;;;5041219;28;20156;-80
2021/01/05 03:07:16;;;;;;;1999.90;999.90;;;3.30;99.90;;;;;;5023273;28;20631;-80
2021/01/05 03:09:51;;;;;;;1999.90;999.90;;;3.30;99.90;;;;;;5040542;28;20502;-80
2021/01/05 03:12:29;;;;;;;1999.90;999.90;;;3.30;99.90;;;;;;5022252;28;20168;-81
2021/01/05 03:15:32;;;;;;;1999.90;999.90;;;3.30;99.90;;;;;;5041501;28;20158;-80
2021/01/05 03:18:24;;;;;;;1999.90;999.90;;;3.40;99.90;;;;;;5040521;28;20149;-80
2021/01/05 03:21:08;;;;;;;1999.90;999.90;;;3.40;99.90;;;;;;5015350;28;20173;-80
2021/01/05 03:23:37;;;;;;;1999.90;999.90;;;3.30;99.90;;;;;;5040666;28;20149;-80
2021/01/05 03:26:09;;;;;;;1999.90;999.90;;;3.30;99.90;;;;;;5041298;28;20201;-80
2021/01/05 03:28:36;;;;;;;1999.90;999.90;;;3.40;99.90;;;;;;5040831;28;20154;-80
2021/01/05 03:31:19;;;;;;;1999.90;999.90;;;3.30;99.90;;;;;;5041094;28;20168;-80
2021/01/05 03:33:50;;;;;;;1999.90;999.90;;;3.30;99.90;;;;;;5041024;28;20184;-81
2021/01/05 03:36:16;;;;;;;1999.90;999.90;;;3.30;99.90;;;;;;5024008;28;20627;-80
2021/01/05 03:38:41;;;;;;;1999.90;999.90;;;3.30;99.90;;;;;;5040678;28;20197;-80
2021/01/05 03:41:07;;;;;;;1999.90;999.90;;;3.30;99.90;;;;;;5022975;28;20180;-80
2021/01/05 03:43:32;;;;;;;1999.90;999.90;;;3.30;99.90;;;;;;5040169;28;20176;-81
2021/01/05 03:45:58;;;;;;;1999.90;999.90;;;3.40;99.90;;;;;;5043151;28;20196;-81
2021/01/05 03:48:24;;;;;;;1999.90;999.90;;;3.40;99.90;;;;;;5044387;28;20176;-81
2021/01/05 03:50:49;;;;;;;1999.90;999.90;;;3.40;99.90;;;;;;5044451;28;20157;-81
2021/01/05 03:53:20;;;;;;;1999.90;999.90;;;3.40;99.90;;;;;;5044975;28;20165;-81
2021/01/05 03:55:46;;;;;;;1999.90;999.90;;;3.40;99.90;;;;;;5043990;28;20605;-81
2021/01/05 03:58:12;;;;;;;1999.90;999.90;;;3.50;99.90;;;;;;5026454;28;20169;-81
2021/01/05 04:00:38;;;;;;;1999.90;999.90;;;3.40;99.90;;;;;;5044051;28;20173;-81
2021/01/05 04:03:03;;;;;;;1999.90;999.90;;;3.40;99.90;;;;;;5044393;28;20215;-80
2021/01/05 04:05:29;;;;;;;1999.90;999.90;;;3.40;99.90;;;;;;5026563;28;20204;-81
2021/01/05 04:07:55;;;;;;;1999.90;999.90;;;3.40;99.90;;;;;;5043829;28;20166;-81
2021/01/05 04:10:21;;;;;;;1999.90;999.90;;;3.30;99.90;;;;;;5025779;28;20176;-81
2021/01/05 04:12:47;;;;;;;1999.90;999.90;;;3.30;99.90;;;;;;5025957;28;20172;-81
2021/01/05 04:15:19;;;;;;;1999.90;999.90;;;3.30;99.90;;;;;;5044118;28;20244;-80
2021/01/05 04:17:45;;;;;;;1999.90;999.90;;;3.40;99.90;;;;;;5025625;28;20753;-81
2021/01/05 04:20:12;;;;;;;1999.90;999.90;;;3.30;99.90;;;;;;5025624;28;20180;-81
2021/01/05 04:22:37;;;;;;;1999.90;999.90;;;3.40;99.90;;;;;;5043544;28;20400;-80
2021/01/05 04:25:05;;;;;;;1999.90;999.90;;;3.40;99.90;;;;;;5025474;28;20670;-81
2021/01/05 04:27:30;;;;;;;1999.90;999.90;;;3.30;99.90;;;;;;5043406;28;20161;-81
2021/01/05 04:29:56;;;;;;;1999.90;999.90;;;3.30;99.90;;;;;;5025848;28;20180;-80
2021/01/05 04:32:22;;;;;;;1999.90;999.90;;;3.40;99.90;;;;;;5043235;28;20525;-80
2021/01/05 04:34:47;;;;;;;1999.90;999.90;;;3.40;99.90;;;;;;5025263;28;20621;-80
2021/01/05 04:37:13;;;;;;;1999.90;999.90;;;3.40;99.90;;;;;;5043701;28;20173;-80
2021/01/05 04:39:39;;;;;;;1999.90;999.90;;;3.40;99.90;;;;;;5025727;28;20233;-81
2021/01/05 04:42:18;;;;;;;1999.90;999.90;;;3.40;99.90;;;;;;5025246;28;20169;-81
2021/01/05 04:45:10;;;;;;;1999.90;999.90;;;3.40;99.90;;;;;;5026234;28;20201;-81
2021/01/05 04:47:42;;;;;;;1999.90;999.90;;;3.40;99.90;;;;;;5043737;28;20237;-81
2021/01/05 04:50:16;;;;;;;1999.90;999.90;;;3.40;99.90;;;;;;5042650;28;20205;-81
2021/01/05 04:53:37;;;;;;;1999.90;999.90;;;3.40;99.90;;;;;;5026047;28;20167;-81
2021/01/05 04:56:07;;;;;;;1999.90;999.90;;;3.40;99.90;;;;;;5025846;28;20260;-81
2021/01/05 04:58:45;;;;;;;1999.90;999.90;;;3.40;99.90;;;;;;5043742;28;20150;-81
2021/01/05 05:01:25;;;;;;;1999.90;999.90;;;3.40;99.90;;;;;;5044008;28;20203;-81
2021/01/05 05:04:28;;;;;;;1999.90;999.90;;;3.40;99.90;;;;;;5043826;28;20164;-81
2021/01/05 05:07:24;;;;;;;1999.90;999.90;;;3.40;99.90;;;;;;5043145;28;20193;-81
2021/01/05 05:10:05;;;;;;;1999.90;999.90;;;3.40;99.90;;;;;;5043041;28;20208;-81
2021/01/05 05:12:40;;;;;;;1999.90;999.90;;;3.40;99.90;;;;;;5025394;28;20165;-80
2021/01/05 05:15:24;;;;;;;1999.90;999.90;;;3.40;99.90;;;;;;5042797;28;20176;-80
2021/01/05 05:18:01;;;;;;;1999.90;999.90;;;3.40;99.90;;;;;;5043086;28;20498;-80
2021/01/05 05:20:47;;;;;;;1999.90;999.90;;;3.40;99.90;;;;;;5025649;28;20227;-79
2021/01/05 05:23:50;;;;;;;1999.90;999.90;;;3.40;99.90;;;;;;5042383;28;20154;-81
2021/01/05 05:26:44;;;;;;;1999.90;999.90;;;3.40;99.90;;;;;;5008307;28;20200;-80
2021/01/05 05:29:37;;;;;;;1999.90;999.90;;;3.40;99.90;;;;;;5042301;28;20635;-80
2021/01/05 05:32:15;;;;;;;1999.90;999.90;;;3.40;99.90;;;;;;5042475;28;20651;-81
2021/01/05 05:34:59;;;;;;;1999.90;999.90;;;3.50;99.90;;;;;;5042825;28;20616;-80
2021/01/05 05:37:47;;;;;;;1999.90;999.90;;;3.40;99.90;;;;;;5042347;28;20141;-81
2021/01/05 05:40:31;;;;;;;1999.90;999.90;;;3.50;99.90;;;;;;5042647;28;20224;-81
2021/01/05 05:43:30;;;;;;;1999.90;999.90;;;3.50;99.90;;;;;;5024633;28;20233;-81
2021/01/05 05:46:24;;;;;;;1999.90;999.90;;;3.40;99.90;;;;;;5025291;28;20271;-81
2021/01/05 05:49:02;;;;;;;1999.90;999.90;;;3.40;99.90;;;;;;5025024;28;20162;-81
2021/01/05 05:51:41;;;;;;;1999.90;999.90;;;3.30;99.90;;;;;;5025416;28;20251;-81
2021/01/05 05:54:12;;;;;;;1999.90;999.90;;;3.30;99.90;;;;;;5025238;28;20157;-81
2021/01/05 05:57:10;;;;;;;1999.90;999.90;;;3.30;99.90;;;;;;5042779;28;20150;-80
2021/01/05 05:59:41;;;;;;;1999.90;999.90;;;3.40;99.90;;;;;;5042645;28;20231;-81
2021/01/05 06:02:15;;;;;;;1999.90;999.90;;;3.30;99.90;;;;;;5043192;28;20209;-81
2021/01/05 06:04:41;;;;;;;1999.90;999.90;;;3.40;99.90;;;;;;5044595;28;20153;-80
2021/01/05 06:07:06;;;;;;;1999.90;999.90;;;3.40;99.90;;;;;;5043545;28;20667;-80
2021/01/05 06:09:32;;;;;;;1999.90;999.90;;;3.40;99.90;;;;;;5042144;28;20184;-81
2021/01/05 06:12:01;;;;;;;1999.90;999.90;;;3.40;99.90;;;;;;5041566;28;20714;-81
2021/01/05 06:14:26;;;;;;;1999.90;999.90;;;3.40;99.90;;;;;;5024412;28;20698;-80
2021/01/05 06:16:52;;;;;;;1999.90;999.90;;;3.40;99.90;;;;;;5041933;28;20172;-81
2021/01/05 06:19:17;;;;;;;1999.90;999.90;;;3.40;99.90;;;;;;5024113;28;20200;-81
2021/01/05 06:21:43;;;;;;;1999.90;999.90;;;3.40;99.90;;;;;;5042013;28;20173;-81
2021/01/05 06:24:09;;;;;;;1999.90;999.90;;;3.40;99.90;;;;;;5042058;28;20165;-81
2021/01/05 06:26:35;;;;;;;1999.90;999.90;;;3.40;99.90;;;;;;5041872;28;20192;-81
2021/01/05 06:29:01;;;;;;;1999.90;999.90;;;3.40;99.90;;;;;;5025128;28;20439;-80
2021/01/05 06:31:26;;;;;;;1999.90;999.90;;;3.40;99.90;;;;;;5042130;28;20461;-81
2021/01/05 06:33:52;;;;;;;1999.90;999.90;;;3.40;99.90;;;;;;5041454;28;20180;-80
2021/01/05 06:36:18;;;;;;;1999.90;999.90;;;3.50;99.90;;;;;;5023401;28;20169;-81
2021/01/05 06:38:43;;;;;;;1999.90;999.90;;;3.40;99.90;;;;;;5041619;28;20173;-81
2021/01/05 06:41:09;;;;;;;1999.90;999.90;;;3.50;99.90;;;;;;5023032;28;20272;-81
2021/01/05 06:43:35;;;;;;;1999.90;999.90;;;3.50;99.90;;;;;;5041288;28;20168;-81
2021/01/05 06:46:01;;;;;;;1999.90;999.90;;;3.40;99.90;;;;;;5022033;28;20261;-81
2021/01/05 06:48:35;;;;;;;1999.90;999.90;;;3.50;99.90;;;;;;5040366;28;20175;-81
2021/01/05 06:51:04;;;;;;;1999.90;999.90;;;3.50;99.90;;;;;;5040311;28;20141;-81
2021/01/05 06:53:29;;;;;;;1999.90;999.90;;;3.50;99.90;;;;;;5023295;28;20165;-81
2021/01/05 06:55:55;;;;;;;1999.90;999.90;;;3.50;99.90;;;;;;5040198;28;20165;-81
2021/01/05 06:58:21;;;;;;;1999.90;999.90;;;3.50;99.90;;;;;;5040430;28;20212;-81
2021/01/05 07:00:46;;;;;;;1999.90;999.90;;;3.50;99.90;;;;;;5040866;28;20166;-81
2021/01/05 07:03:12;;;;;;;1999.90;999.90;;;3.50;99.90;;;;;;5040287;28;20226;-81
2021/01/05 07:05:38;;;;;;;1999.90;999.90;;;3.50;99.90;;;;;;5039452;28;20232;-81
2021/01/05 07:08:06;;;;;;;1999.90;999.90;;;3.50;99.90;;;;;;5021867;28;20671;-81
2021/01/05 07:10:32;;;;;;;1999.90;999.90;;;3.50;99.90;;;;;;5039827;28;20165;-81
2021/01/05 07:12:58;;;;;;;1999.90;999.90;;;3.50;99.90;;;;;;5040012;28;20651;-81
2021/01/05 07:15:26;;;;;;;1999.90;999.90;;;3.50;99.90;;;;;;5040000;28;20169;-81
2021/01/05 07:17:52;;;;;;;1999.90;999.90;;;3.50;99.90;;;;;;5039669;28;20158;-82
2021/01/05 07:20:20;;;;;;;1999.90;999.90;;;3.50;99.90;;;;;;5023136;28;20196;-81
2021/01/05 07:22:52;;;;;;;1999.90;999.90;;;3.50;99.90;;;;;;5042822;28;20805;-82
2021/01/05 07:25:20;;;;;;;1999.90;999.90;;;3.50;99.90;;;;;;5042365;28;20553;-81
2021/01/05 07:27:52;;;;;;;1999.90;999.90;;;3.40;99.90;;;;;;5042753;28;20255;-82
2021/01/05 07:30:23;;;;;;;1999.90;999.90;;;3.40;99.90;;;;;;5025996;28;20169;-82
2021/01/05 07:33:11;;;;;;;;;;;;;;;;;;;;;
2021/01/05 07:36:21;;;;;;;1999.90;999.90;;;3.50;99.90;;;;;;5043166;28;20244;-80
2021/01/05 07:38:49;;;;;;;1999.90;999.90;;;3.40;99.90;;;;;;5042303;28;20170;-81
2021/01/05 07:41:18;;;;;;;1999.90;999.90;;;3.40;99.90;;;;;;5042212;28;20609;-81
2021/01/05 07:43:53;;;;;;;1999.90;999.90;;;3.40;99.90;;;;;;5041913;28;20628;-81
2021/01/05 07:46:21;;;;;;;1999.90;999.90;;;3.30;99.90;;;;;;5042292;28;20196;-81
2021/01/05 07:48:46;;;;;;;1999.90;999.90;;;3.40;99.90;;;;;;5044505;28;20173;-81
2021/01/05 07:51:12;;;;;;;1999.90;999.90;;;3.40;99.90;;;;;;5044401;28;20162;-81
2021/01/05 07:53:38;;;;;;;1999.90;999.90;;;3.40;99.90;;;;;;5043294;28;20161;-82
2021/01/05 07:56:06;;;;;;;1999.90;999.90;;;3.40;99.90;;;;;;5042557;28;20169;-82
2021/01/05 07:58:38;;;;;;;1999.90;999.90;;;3.40;99.90;;;;;;5026679;28;20169;-81
2021/01/05 08:01:12;;;;;;;1999.90;999.90;;;3.40;99.90;;;;;;5044492;28;20211;-81
2021/01/05 08:03:47;;;;;;;1999.90;999.90;;;3.50;99.90;;;;;;5024738;28;20640;-81
2021/01/05 08:06:21;;;;;;;1999.90;999.90;;;3.50;99.90;;;;;;5024701;28;20208;-79
2021/01/05 08:08:47;;;;;;;1999.90;999.90;;;3.50;99.90;;;;;;5024457;28;20172;-81
2021/01/05 08:11:24;;;;;;;1999.90;999.90;;;3.50;99.90;;;;;;5041413;28;20185;-81
2021/01/05 08:14:15;;;;;;;1999.90;999.90;;;3.50;99.90;;;;;;5041478;28;20192;-79
2021/01/05 08:21:09;;;;;;;1999.90;999.90;;;3.60;99.90;;;;;;4981100;28;20175;-81
2021/01/05 08:24:17;;;;;;;1999.90;999.90;;;3.50;99.90;;;;;;4943375;28;20179;-80
2021/01/05 08:27:17;;;;;;;;;;;;;;;;;;;;;
2021/01/05 08:30:53;;;;;;;;;;;;;;;;;;;;;
2021/01/05 08:33:50;;;;;;;1999.90;999.90;;;3.60;99.90;;;;;;4979573;28;20222;-81
2021/01/05 08:36:34;;;;;;;1999.90;999.90;;;3.60;99.90;;;;;;5039933;28;20559;-80
2021/01/05 08:39:11;;;;;;;1999.90;999.90;;;3.60;99.90;;;;;;5023281;28;20177;-81
2021/01/05 08:42:01;;;;;;;1999.90;999.90;;;3.50;99.90;;;;;;5041324;28;20180;-81
2021/01/05 08:44:33;;;;;;;1999.90;999.90;;;3.60;99.90;;;;;;5022294;28;20170;-81
2021/01/05 08:47:35;;;;;;;1999.90;999.90;;;3.60;99.90;;;;;;5023102;28;20279;-80
2021/01/05 08:50:14;;;;;;;1999.90;999.90;;;3.60;99.90;;;;;;5002089;28;20582;-81
2021/01/05 08:53:29;;;;;;;1999.90;999.90;;;3.50;99.90;;;;;;5041234;28;20255;-80
2021/01/05 08:56:02;;;;;;;1999.90;999.90;;;3.60;99.90;;;;;;5022217;28;20673;-82
2021/01/05 08:58:48;;;;;;;1999.90;999.90;;;3.70;99.90;;;;;;5025239;28;20272;-81
2021/01/05 09:01:14;;;;;;;1999.90;999.90;;;3.70;99.90;;;;;;5042241;28;20171;-82
2021/01/05 09:03:42;;;;;;;1999.90;999.90;;;3.70;99.90;;;;;;5024694;28;20169;-82
2021/01/05 09:06:11;;;;;;;1999.90;999.90;;;3.70;99.90;;;;;;5042079;28;20712;-81
2021/01/05 09:12:20;;;;;;;1999.90;999.90;;;3.80;99.90;;;;;;5019561;28;20194;-81
2021/01/05 09:14:45;;;;;;;1999.90;999.90;;;3.80;99.90;;;;;;5039797;28;20240;-81
2021/01/05 09:17:24;;;;;;;1999.90;999.90;;;3.80;99.90;;;;;;5040821;28;20200;-81
2021/01/05 09:23:25;;;;;;;;;;;;;;;;;;;;;
2021/01/05 09:26:00;;;;;;;1999.90;999.90;;;3.90;99.90;;;;;;5041851;28;20264;-81
2021/01/05 09:28:49;;;;;;;1999.90;999.90;;;3.90;99.90;;;;;;5041037;28;20176;-81
2021/01/05 09:31:19;;;;;;;1999.90;999.90;;;3.90;99.90;;;;;;5039835;28;20208;-81
2021/01/05 09:33:54;;;;;;;1999.90;999.90;;;3.90;99.90;;;;;;5040047;28;20161;-81
2021/01/05 09:36:41;;;;;;;1999.90;999.90;;;3.90;99.90;;;;;;5024355;28;20177;-81
2021/01/05 09:39:25;;;;;;;1999.90;999.90;;;3.90;99.90;;;;;;5023669;28;20173;-81
2021/01/05 09:45:00;;;;;;;1999.90;999.90;;;3.90;99.90;;;;;;5026249;28;20173;-79
2021/01/05 09:47:28;;;;;;;1999.90;999.90;;;3.90;99.90;;;;;;5039652;28;20237;-82
2021/01/05 09:49:57;;;;;;;1999.90;999.90;;;3.90;99.90;;;;;;5022012;28;20180;-81
2021/01/05 09:54:06;;;;;;;1999.90;999.90;;;3.80;99.90;;;;;;5021409;28;20161;-81
2021/01/05 09:56:11;;;;;;;1999.90;999.90;;;3.90;99.90;;;;;;4992177;28;20252;-81
2021/01/05 10:02:56;;;;;;;1999.90;999.90;;;3.90;99.90;;;;;;4974820;28;20198;-82
2021/01/05 10:06:05;;;;;;;1999.90;999.90;;;3.90;99.90;;;;;;5039247;28;20193;-82
2021/01/05 10:08:35;;;;;;;1999.90;999.90;;;3.90;99.90;;;;;;5021148;28;20191;-81
2021/01/05 10:11:06;;;;;;;1999.90;999.90;;;3.80;99.90;;;;;;5022518;28;20173;-81
2021/01/05 10:13:32;;;;;;;1999.90;999.90;;;3.90;99.90;;;;;;5022376;28;20616;-81
2021/01/05 10:16:01;;;;;;;1999.90;999.90;;;3.90;99.90;;;;;;5021821;28;20204;-82
2021/01/05 10:18:54;;;;;;;1999.90;999.90;;;3.90;99.90;;;;;;5039185;28;20474;-82
2021/01/05 10:22:02;;;;;;;1999.90;999.90;;;4.00;99.90;;;;;;5038669;28;20161;-82
2021/01/05 10:24:36;;;;;;;1999.90;999.90;;;3.90;99.90;;;;;;5020527;28;20211;-82
2021/01/05 10:30:32;;;;;;;1999.90;999.90;;;4.00;99.90;;;;;;5039150;28;20168;-81
2021/01/05 10:33:01;;;;;;;1999.90;999.90;;;4.10;99.90;;;;;;5021446;28;20173;-81
2021/01/05 10:35:49;;;;;;;1999.90;999.90;;;4.10;99.90;;;;;;5038804;28;20188;-82
2021/01/05 10:38:37;;;;;;;1999.90;999.90;;;4.10;99.90;;;;;;5020193;28;20179;-81
2021/01/05 10:41:06;;;;;;;1999.90;999.90;;;4.20;99.90;;;;;;5037915;28;20210;-81
2021/01/05 10:44:33;;;;;;;1999.90;999.90;;;4.20;99.90;;;;;;5021357;28;20173;-82
2021/01/05 10:47:19;;;;;;;1999.90;999.90;;;4.20;99.90;;;;;;5029107;28;20216;-81
2021/01/05 10:50:06;;;;;;;1999.90;999.90;;;4.20;99.90;;;;;;5038456;28;20232;-81
2021/01/05 10:53:45;;;;;;;1999.90;999.90;;;4.20;99.90;;;;;;5032699;28;20197;-81
2021/01/05 10:56:49;;;;;;;1999.90;999.90;;;4.20;99.90;;;;;;4964771;28;20175;-81
2021/01/05 10:59:39;;;;;;;1999.90;999.90;;;4.10;99.90;;;;;;4987376;28;20167;-82
2021/01/05 11:02:17;;;;;;;1999.90;999.90;;;4.20;99.90;;;;;;5043180;28;20212;-81
2021/01/05 11:05:07;;;;;;;1999.90;999.90;;;4.20;99.90;;;;;;5043663;28;20176;-80
2021/01/05 11:07:52;;;;;;;1999.90;999.90;;;4.20;99.90;;;;;;5043115;28;20158;-81
2021/01/05 11:10:36;;;;;;;1999.90;999.90;;;4.10;99.90;;;;;;5044143;28;20142;-80
2021/01/05 11:13:02;;;;;;;1999.90;999.90;;;4.10;99.90;;;;;;5043610;28;20515;-81
2021/01/05 11:15:32;;;;;;;1999.90;999.90;;;4.10;99.90;;;;;;5043312;28;20176;-81
2021/01/05 11:18:15;;;;;;;1999.90;999.90;;;4.10;99.90;;;;;;5043730;28;20224;-81
2021/01/05 11:20:53;;;;;;;1999.90;999.90;;;4.00;99.90;;;;;;5043924;28;20211;-82
2021/01/05 11:24:10;;;;;;;;;;;;;;;;;;;;;
2021/01/05 11:30:06;;;;;;;1999.90;999.90;;;3.90;99.90;;;;;;4943449;29;20289;-82
2021/01/05 11:32:56;;;;;;;;;;;;;;;;;;;;;
2021/01/05 11:35:33;;;;;;;1999.90;999.90;;;3.90;99.90;;;;;;5044492;28;20255;-82
2021/01/05 11:37:59;;;;;;;1999.90;999.90;;;4.10;99.90;;;;;;5019944;23;20228;-85
2021/01/05 11:40:26;;;;;;;1999.90;999.90;;;4.10;99.90;;;;;;5001096;28;20661;-85
2021/01/05 11:42:53;;;;;;;1999.90;999.90;;;4.00;99.90;;;;;;5002146;28;20495;-85
2021/01/05 11:45:19;;;;;;;1999.90;999.90;;;3.90;99.90;;;;;;5001748;28;20648;-85
2021/01/05 11:47:45;;;;;;;1999.90;999.90;;;4.00;99.90;;;;;;5001673;28;20197;-85
2021/01/05 11:50:11;;;;;;;1999.90;999.90;;;4.00;99.90;;;;;;5001394;28;20409;-86
2021/01/05 11:52:39;;;;;;;1999.90;999.90;;;4.00;99.90;;;;;;4984577;28;20175;-86
2021/01/05 11:55:08;;;;;;;1999.90;999.90;;;3.90;99.90;;;;;;4983173;28;20171;-85
2021/01/05 11:57:33;;;;;;;1999.90;999.90;;;4.00;99.90;;;;;;5001277;28;20645;-85
2021/01/05 11:59:59;;;;;;;1999.90;999.90;;;4.10;99.90;;;;;;5001391;28;20241;-86
2021/01/05 12:02:25;;;;;;;1999.90;999.90;;;4.20;99.90;;;;;;5001675;28;20174;-85
2021/01/05 12:04:50;;;;;;;1999.90;999.90;;;4.30;99.90;;;;;;4983535;28;20648;-85
2021/01/05 12:07:16;;;;;;;1999.90;999.90;;;4.30;99.90;;;;;;5000813;28;20194;-86
2021/01/05 12:09:43;;;;;;;1999.90;999.90;;;4.40;99.90;;;;;;4984113;28;20182;-86
2021/01/05 12:12:09;;;;;;;1999.90;999.90;;;4.40;99.90;;;;;;4999786;28;20170;-86
2021/01/05 12:14:35;;;;;;;1999.90;999.90;;;4.30;99.90;;;;;;4998624;28;20553;-86
2021/01/05 12:17:03;;;;;;;1999.90;999.90;;;4.30;99.90;;;;;;4999948;28;20409;-86
2021/01/05 12:19:32;;;;;;;1999.90;999.90;;;4.30;99.90;;;;;;4982292;28;20661;-86
2021/01/05 12:22:00;;;;;;;1999.90;999.90;;;4.30;99.90;;;;;;5000550;28;20657;-86
2021/01/05 12:24:29;;;;;;;1999.90;999.90;;;4.30;99.90;;;;;;4981671;28;20206;-86
2021/01/05 12:27:01;;;;;;;1999.90;999.90;;;4.30;99.90;;;;;;4999652;28;20265;-86
2021/01/05 12:29:30;;;;;;;1999.90;999.90;;;4.30;99.90;;;;;;4982347;28;20254;-85
2021/01/05 12:32:04;;;;;;;1999.90;999.90;;;4.30;99.90;;;;;;4998379;28;20562;-86
2021/01/05 12:34:33;;;;;;;1999.90;999.90;;;4.30;99.90;;;;;;4998942;28;20231;-85
2021/01/05 12:37:07;;;;;;;1999.90;999.90;;;4.20;99.90;;;;;;4980747;28;20170;-85
2021/01/05 12:39:35;;;;;;;1999.90;999.90;;;4.30;99.90;;;;;;4980731;28;20173;-85
2021/01/05 12:42:10;;;;;;;1999.90;999.90;;;4.30;99.90;;;;;;4998887;28;20680;-85
2021/01/05 12:44:39;;;;;;;1999.90;999.90;;;4.20;99.90;;;;;;4980696;28;20238;-85
2021/01/05 12:47:05;;;;;;;1999.90;999.90;;;4.20;99.90;;;;;;4999029;28;20190;-85
2021/01/05 12:49:31;;;;;;;1999.90;999.90;;;4.10;99.90;;;;;;4999514;28;20163;-86
2021/01/05 12:52:02;;;;;;;1999.90;999.90;;;4.10;99.90;;;;;;4998786;28;20221;-85
2021/01/05 12:54:27;;;;;;;1999.90;999.90;;;4.20;99.90;;;;;;4998348;28;20170;-86
2021/01/05 12:56:54;;;;;;;1999.90;999.90;;;4.20;99.90;;;;;;4997883;28;20166;-86
2021/01/05 12:59:19;;;;;;;1999.90;999.90;;;4.20;99.90;;;;;;4998342;28;20700;-85
2021/01/05 13:01:45;;;;;;;1999.90;999.90;;;4.10;99.90;;;;;;4996447;28;20178;-86
2021/01/05 13:04:11;;;;;;;1999.90;999.90;;;4.10;99.90;;;;;;4979204;28;20265;-86
2021/01/05 13:06:37;;;;;;;1999.90;999.90;;;4.10;99.90;;;;;;4995836;28;20519;-86
2021/01/05 13:09:05;;;;;;;1999.90;999.90;;;4.10;99.90;;;;;;4997043;28;20158;-85
2021/01/05 13:11:31;;;;;;;1999.90;999.90;;;4.20;99.90;;;;;;4981408;28;20437;-85
2021/01/05 13:14:01;;;;;;;1999.90;999.90;;;4.20;99.90;;;;;;4978962;28;20178;-86
2021/01/05 13:16:34;;;;;;;1999.90;999.90;;;4.20;99.90;;;;;;4979234;28;20178;-86
2021/01/05 13:19:02;;;;;;;1999.90;999.90;;;4.20;99.90;;;;;;4994511;28;20205;-86
2021/01/05 13:21:30;;;;;;;1999.90;999.90;;;4.20;99.90;;;;;;4997111;28;20190;-86
2021/01/05 13:24:02;;;;;;;1999.90;999.90;;;4.20;99.90;;;;;;4996754;28;20229;-86